Time;durP1;ratioP1;P1;durP2;ratioP2;P2;SDS_P1;SDS_P2;PMS_P1;PMS_P2;Temp;Humidity;BMP_temperature;BMP_pressure;BME280_temperature;BME280_humidity;BME280_pressure;Samples;Min_cycle;Max_cycle;Signal;HPM_P1;HPM_P2
2022/03/19 00:00:32;;;;;;;12.50;2.92;;;4.30;99.90;;;;;;6264654;22;20029;-61
2022/03/19 00:02:57;;;;;;;9.88;2.35;;;4.20;99.90;;;;;;6264569;22;20346;-66
2022/03/19 00:05:23;;;;;;;9.60;1.75;;;4.20;99.90;;;;;;6264030;22;20646;-63
2022/03/19 00:07:50;;;;;;;9.13;2.25;;;4.20;99.90;;;;;;6265451;22;20381;-63
2022/03/19 00:10:17;;;;;;;9.38;1.88;;;4.60;99.90;;;;;;6264229;22;20023;-57
2022/03/19 00:12:42;;;;;;;8.15;2.67;;;4.10;99.90;;;;;;6238088;22;20438;-76
2022/03/19 00:15:10;;;;;;;8.60;1.85;;;4.10;99.90;;;;;;6265880;22;20445;-79
2022/03/19 00:17:36;;;;;;;8.70;2.72;;;4.00;99.90;;;;;;6265948;22;20027;-74
2022/03/19 00:20:03;;;;;;;16.88;4.38;;;4.00;99.90;;;;;;6266281;22;20016;-77
2022/03/19 00:22:29;;;;;;;10.02;2.25;;;4.00;99.90;;;;;;6267666;22;20023;-66
2022/03/19 00:24:55;;;;;;;12.10;2.95;;;4.10;99.90;;;;;;6269370;22;20133;-56
2022/03/19 00:27:21;;;;;;;14.23;2.92;;;4.00;99.90;;;;;;6267944;22;20089;-59
2022/03/19 00:29:46;;;;;;;8.95;2.13;;;4.00;99.90;;;;;;6267943;22;20034;-57
2022/03/19 00:32:12;;;;;;;10.27;2.70;;;4.00;99.90;;;;;;6269033;22;20478;-59
2022/03/19 00:34:38;;;;;;;4.68;1.52;;;4.60;99.90;;;;;;6268556;22;20055;-57
2022/03/19 00:37:04;;;;;;;13.48;2.47;;;4.00;99.90;;;;;;6267693;22;20011;-56
2022/03/19 00:39:29;;;;;;;8.18;2.03;;;4.00;99.90;;;;;;6268082;22;20020;-56
2022/03/19 00:41:55;;;;;;;8.35;2.45;;;4.00;99.90;;;;;;6268451;22;20023;-57
2022/03/19 00:44:21;;;;;;;8.73;2.60;;;4.00;99.90;;;;;;6267468;22;20020;-57
2022/03/19 00:46:50;;;;;;;6.65;2.90;;;4.00;99.90;;;;;;6268301;22;20069;-57
2022/03/19 00:49:16;;;;;;;14.35;3.15;;;4.00;99.90;;;;;;6268693;22;20011;-57
2022/03/19 00:51:42;;;;;;;13.60;2.80;;;4.00;99.90;;;;;;6264644;22;20018;-56
2022/03/19 00:54:10;;;;;;;13.15;2.30;;;4.00;99.90;;;;;;6267448;22;20462;-57
2022/03/19 00:56:36;;;;;;;8.88;2.13;;;4.30;99.90;;;;;;6268147;22;20023;-57
2022/03/19 00:59:02;;;;;;;11.27;2.42;;;4.00;99.90;;;;;;6267021;22;20023;-57
2022/03/19 01:01:28;;;;;;;9.50;3.07;;;4.40;99.90;;;;;;6267341;22;20011;-57
2022/03/19 01:03:54;;;;;;;9.82;3.03;;;4.00;99.90;;;;;;6239859;22;20339;-57
2022/03/19 01:06:20;;;;;;;12.73;2.28;;;4.00;99.90;;;;;;6268317;22;20096;-57
2022/03/19 01:08:46;;;;;;;8.05;2.60;;;4.00;99.90;;;;;;6268527;22;20056;-58
2022/03/19 01:11:12;;;;;;;9.77;3.83;;;4.00;99.90;;;;;;6267363;22;20347;-67
2022/03/19 01:13:38;;;;;;;13.05;2.63;;;4.00;99.90;;;;;;6267426;22;20101;-56
2022/03/19 01:16:04;;;;;;;10.80;3.17;;;4.00;99.90;;;;;;6268247;22;20027;-56
2022/03/19 01:18:30;;;;;;;12.80;2.95;;;3.90;99.90;;;;;;6267445;22;20043;-57
2022/03/19 01:20:56;;;;;;;13.30;3.30;;;4.00;99.90;;;;;;6267561;22;20120;-56
2022/03/19 01:23:22;;;;;;;9.90;3.13;;;4.00;99.90;;;;;;6267607;22;20103;-57
2022/03/19 01:25:48;;;;;;;11.10;3.15;;;4.00;99.90;;;;;;6267379;22;20047;-59
2022/03/19 01:28:14;;;;;;;12.15;3.90;;;4.00;99.90;;;;;;6268156;22;20086;-56
2022/03/19 01:30:40;;;;;;;9.68;3.72;;;3.90;99.90;;;;;;6266845;22;20090;-57
2022/03/19 01:33:05;;;;;;;13.55;3.22;;;3.90;99.90;;;;;;6267897;22;20066;-69
2022/03/19 01:35:31;;;;;;;13.23;4.65;;;3.90;99.90;;;;;;6268012;22;20020;-68
2022/03/19 01:37:57;;;;;;;12.07;4.20;;;3.90;99.90;;;;;;6267857;22;20019;-56
2022/03/19 01:40:22;;;;;;;10.25;2.60;;;3.90;99.90;;;;;;6267643;22;20435;-56
2022/03/19 01:42:50;;;;;;;11.00;3.00;;;3.90;99.90;;;;;;6267504;22;20094;-57
2022/03/19 01:45:19;;;;;;;9.57;3.38;;;3.90;99.90;;;;;;6267283;22;20045;-57
2022/03/19 01:47:47;;;;;;;8.93;2.30;;;3.90;99.90;;;;;;6267868;22;20484;-57
2022/03/19 01:50:13;;;;;;;12.57;3.67;;;3.90;99.90;;;;;;6267301;22;20323;-57
2022/03/19 01:52:40;;;;;;;12.25;3.00;;;3.90;99.90;;;;;;6268337;22;20065;-56
2022/03/19 01:55:07;;;;;;;17.80;3.88;;;3.90;99.90;;;;;;6268193;22;20016;-56
2022/03/19 01:57:40;;;;;;;9.32;3.80;;;3.90;99.90;;;;;;6267784;22;20023;-56
2022/03/19 02:00:08;;;;;;;10.25;3.38;;;3.80;99.90;;;;;;6267996;22;20019;-57
2022/03/19 02:02:35;;;;;;;10.90;3.17;;;3.80;99.90;;;;;;6240237;22;20019;-57
2022/03/19 02:05:03;;;;;;;16.38;3.38;;;3.80;99.90;;;;;;6267365;22;20017;-56
2022/03/19 02:07:30;;;;;;;12.20;3.92;;;5.20;99.90;;;;;;6241126;22;20055;-56
2022/03/19 02:10:00;;;;;;;11.15;3.45;;;3.80;99.90;;;;;;6267885;22;20018;-56
2022/03/19 02:12:29;;;;;;;11.30;3.88;;;3.80;99.90;;;;;;6268185;22;20015;-56
2022/03/19 02:14:57;;;;;;;11.38;3.50;;;3.80;99.90;;;;;;6267724;22;20020;-69
2022/03/19 02:17:24;;;;;;;7.53;3.38;;;3.70;99.90;;;;;;6267325;22;20736;-73
2022/03/19 02:19:51;;;;;;;11.50;4.05;;;3.70;99.90;;;;;;6267867;22;20421;-66
2022/03/19 02:22:18;;;;;;;10.98;3.50;;;4.10;99.90;;;;;;6267793;22;20158;-69
2022/03/19 02:27:30;;;;;;;14.15;3.60;;;3.80;99.90;;;;;;6267675;22;20024;-57
2022/03/19 02:29:57;;;;;;;9.48;3.88;;;3.70;99.90;;;;;;6214882;22;20023;-57
2022/03/19 02:32:24;;;;;;;17.55;4.13;;;3.70;99.90;;;;;;6239623;22;20023;-56
2022/03/19 02:34:50;;;;;;;11.13;3.65;;;4.10;99.90;;;;;;6240046;22;20047;-56
2022/03/19 02:37:16;;;;;;;25.88;5.88;;;3.70;99.90;;;;;;6263141;22;20584;-56
2022/03/19 02:39:41;;;;;;;11.60;3.35;;;3.70;99.90;;;;;;6266387;22;20424;-61
2022/03/19 02:42:08;;;;;;;12.48;3.03;;;3.60;99.90;;;;;;6265903;22;20035;-57
2022/03/19 02:44:35;;;;;;;10.63;3.08;;;3.60;99.90;;;;;;6266978;22;20339;-59
2022/03/19 02:47:03;;;;;;;6.32;2.70;;;3.60;99.90;;;;;;6266876;22;20401;-62
2022/03/19 02:49:29;;;;;;;9.82;3.28;;;3.60;99.90;;;;;;6267563;22;20011;-60
2022/03/19 02:51:55;;;;;;;14.82;3.15;;;3.50;99.90;;;;;;6266326;22;20019;-57
2022/03/19 02:54:24;;;;;;;19.27;4.35;;;3.50;99.90;;;;;;6266627;22;20019;-57
2022/03/19 02:56:51;;;;;;;14.25;4.40;;;3.50;99.90;;;;;;6266548;22;20590;-79
2022/03/19 02:59:22;;;;;;;9.88;2.95;;;3.50;99.90;;;;;;6267085;22;20023;-72
2022/03/19 03:01:50;;;;;;;11.15;3.35;;;3.50;99.90;;;;;;6267477;22;20022;-64
2022/03/19 03:04:16;;;;;;;13.43;4.00;;;3.50;99.90;;;;;;6267239;22;20016;-60
2022/03/19 03:06:44;;;;;;;14.60;4.05;;;3.40;99.90;;;;;;6266998;22;20458;-61
2022/03/19 03:09:11;;;;;;;10.48;3.90;;;3.40;99.90;;;;;;6267127;22;20345;-68
2022/03/19 03:11:38;;;;;;;14.07;4.40;;;3.40;99.90;;;;;;6267537;22;20486;-63
2022/03/19 03:14:20;;;;;;;13.52;3.88;;;3.30;99.90;;;;;;6268003;22;20019;-62
2022/03/19 03:16:46;;;;;;;9.55;3.85;;;3.30;99.90;;;;;;6266667;22;20512;-57
2022/03/19 03:19:12;;;;;;;15.82;5.68;;;3.30;99.90;;;;;;6238275;22;20023;-67
2022/03/19 03:21:41;;;;;;;15.32;4.22;;;3.20;99.90;;;;;;6265096;22;20074;-67
2022/03/19 03:24:12;;;;;;;12.82;3.95;;;3.20;99.90;;;;;;6267149;22;20024;-59
2022/03/19 03:26:38;;;;;;;13.52;4.38;;;3.10;99.90;;;;;;6267619;22;20059;-57
2022/03/19 03:29:05;;;;;;;12.30;3.85;;;3.10;99.90;;;;;;6267432;22;20373;-59
2022/03/19 03:31:32;;;;;;;19.45;4.50;;;3.00;99.90;;;;;;6267288;22;20023;-61
2022/03/19 03:33:58;;;;;;;9.60;3.33;;;3.00;99.90;;;;;;6267418;22;20081;-64
2022/03/19 03:36:24;;;;;;;9.05;4.53;;;2.90;99.90;;;;;;6266965;22;20012;-66
2022/03/19 03:38:50;;;;;;;9.23;3.33;;;2.90;99.90;;;;;;6238665;22;20415;-56
2022/03/19 03:41:16;;;;;;;9.73;3.15;;;2.90;99.90;;;;;;6267398;22;20066;-56
2022/03/19 03:43:42;;;;;;;9.55;3.63;;;2.90;99.90;;;;;;6266674;22;20055;-57
2022/03/19 03:46:08;;;;;;;10.65;3.88;;;2.90;99.90;;;;;;6266998;22;20016;-56
2022/03/19 03:48:38;;;;;;;12.45;3.75;;;2.80;99.90;;;;;;6267443;22;20019;-56
2022/03/19 03:51:08;;;;;;;11.25;3.30;;;2.80;99.90;;;;;;6267357;22;20021;-56
2022/03/19 03:53:35;;;;;;;12.07;3.40;;;2.80;99.90;;;;;;6266921;22;20016;-56
2022/03/19 03:56:03;;;;;;;6.40;3.33;;;2.70;99.90;;;;;;6267026;22;20380;-56
2022/03/19 03:58:28;;;;;;;16.40;4.30;;;2.70;99.90;;;;;;6266818;22;20438;-56
2022/03/19 04:00:56;;;;;;;7.03;2.70;;;2.70;99.90;;;;;;6266856;22;20342;-56
2022/03/19 04:03:21;;;;;;;12.15;3.38;;;2.60;99.90;;;;;;6266853;22;20461;-56
2022/03/19 04:05:47;;;;;;;6.60;3.65;;;2.60;99.90;;;;;;6267432;22;20024;-57
2022/03/19 04:08:13;;;;;;;6.15;3.30;;;2.60;99.90;;;;;;6267448;22;20015;-56
2022/03/19 04:10:39;;;;;;;13.65;3.03;;;2.60;99.90;;;;;;6267000;22;20424;-56
2022/03/19 04:13:04;;;;;;;14.50;3.58;;;2.70;99.90;;;;;;6266702;22;20022;-56
2022/03/19 04:15:30;;;;;;;11.05;4.32;;;2.50;99.90;;;;;;6267350;22;20047;-56
2022/03/19 04:17:56;;;;;;;10.40;3.88;;;2.50;99.90;;;;;;6267093;22;20023;-56
2022/03/19 04:20:22;;;;;;;11.20;3.95;;;3.10;99.90;;;;;;6266772;22;20015;-56
2022/03/19 04:22:49;;;;;;;10.57;4.53;;;2.50;99.90;;;;;;6267415;22;20042;-56
2022/03/19 04:25:17;;;;;;;14.45;4.88;;;2.50;99.90;;;;;;6266251;22;20026;-56
2022/03/19 04:27:45;;;;;;;14.55;4.45;;;2.50;99.90;;;;;;6266667;22;20066;-56
2022/03/19 04:30:12;;;;;;;14.88;6.45;;;2.50;99.90;;;;;;6266371;22;20023;-57
2022/03/19 04:32:53;;;;;;;11.43;4.63;;;2.60;99.90;;;;;;6267358;22;20016;-56
2022/03/19 04:38:07;;;;;;;15.15;5.15;;;2.60;99.90;;;;;;6267259;22;20016;-56
2022/03/19 04:40:33;;;;;;;17.45;5.97;;;2.50;99.90;;;;;;6265865;22;20023;-76
2022/03/19 04:42:59;;;;;;;13.27;4.75;;;2.60;99.90;;;;;;6267249;22;20444;-57
2022/03/19 04:45:25;;;;;;;18.33;6.65;;;2.60;99.90;;;;;;6267442;22;20070;-56
2022/03/19 04:47:51;;;;;;;20.98;6.30;;;2.60;99.90;;;;;;6239369;22;20028;-64
2022/03/19 04:50:17;;;;;;;15.75;6.40;;;2.50;99.90;;;;;;6267165;22;20031;-64
2022/03/19 04:52:43;;;;;;;17.45;6.13;;;2.50;99.90;;;;;;6266913;22;20073;-60
2022/03/19 04:55:11;;;;;;;15.80;6.43;;;2.50;99.90;;;;;;6266917;22;20019;-64
2022/03/19 04:57:38;;;;;;;14.00;6.80;;;2.50;99.90;;;;;;6266090;22;20042;-67
2022/03/19 05:00:06;;;;;;;11.30;4.97;;;2.50;99.90;;;;;;6240018;22;20097;-62
2022/03/19 05:02:32;;;;;;;15.88;6.18;;;2.50;99.90;;;;;;6266429;22;20020;-71
2022/03/19 05:04:58;;;;;;;25.05;7.13;;;2.50;99.90;;;;;;6267094;22;20544;-61
2022/03/19 05:07:27;;;;;;;14.35;5.65;;;2.50;99.90;;;;;;6268733;22;20020;-69
2022/03/19 05:12:43;;;;;;;14.23;7.10;;;2.50;99.90;;;;;;6269029;22;20032;-72
2022/03/19 05:15:16;;;;;;;18.20;6.05;;;2.50;99.90;;;;;;6268667;22;20026;-56
2022/03/19 05:17:43;;;;;;;13.23;4.60;;;2.50;99.90;;;;;;6269197;22;20166;-56
2022/03/19 05:20:10;;;;;;;15.70;5.88;;;2.50;99.90;;;;;;6268483;22;20434;-56
2022/03/19 05:22:36;;;;;;;17.13;6.28;;;2.40;99.90;;;;;;6268861;22;20023;-67
2022/03/19 05:25:03;;;;;;;13.05;6.72;;;2.50;99.90;;;;;;6268561;22;20019;-57
2022/03/19 05:27:29;;;;;;;24.58;7.22;;;2.40;99.90;;;;;;6268412;22;20089;-61
2022/03/19 05:29:54;;;;;;;22.80;7.18;;;2.50;99.90;;;;;;6268572;22;20438;-63
2022/03/19 05:32:21;;;;;;;18.05;7.43;;;2.40;99.90;;;;;;6268055;22;20012;-56
2022/03/19 05:34:48;;;;;;;18.38;7.93;;;2.40;99.90;;;;;;6268465;22;20019;-56
2022/03/19 05:37:15;;;;;;;15.80;6.57;;;2.80;99.90;;;;;;6239590;22;20051;-65
2022/03/19 05:39:41;;;;;;;20.15;7.47;;;2.40;99.90;;;;;;6267395;22;20046;-56
2022/03/19 05:42:07;;;;;;;17.10;7.55;;;2.40;99.90;;;;;;6267151;22;20481;-56
2022/03/19 05:44:33;;;;;;;20.83;7.75;;;2.40;99.90;;;;;;6240920;22;20019;-56
2022/03/19 05:46:59;;;;;;;16.38;6.68;;;2.40;99.90;;;;;;6268532;22;20058;-56
2022/03/19 05:49:26;;;;;;;14.40;6.32;;;2.40;99.90;;;;;;6268102;22;20019;-57
2022/03/19 05:51:53;;;;;;;16.83;6.15;;;2.30;99.90;;;;;;6267959;22;20031;-56
2022/03/19 05:54:19;;;;;;;24.33;7.55;;;2.40;99.90;;;;;;6267898;22;20553;-56
2022/03/19 05:56:45;;;;;;;19.70;7.93;;;2.40;99.90;;;;;;6268450;22;20021;-56
2022/03/19 05:59:11;;;;;;;17.77;8.10;;;2.40;99.90;;;;;;6268157;22;20086;-56
2022/03/19 06:01:37;;;;;;;21.08;8.40;;;2.50;99.90;;;;;;6267697;22;20421;-56
2022/03/19 06:04:03;;;;;;;17.55;6.25;;;2.50;99.90;;;;;;6240171;22;20564;-56
2022/03/19 06:06:30;;;;;;;18.95;7.85;;;2.50;99.90;;;;;;6268077;22;20016;-56
2022/03/19 06:08:56;;;;;;;16.80;7.82;;;2.50;99.90;;;;;;6267570;22;20023;-56
2022/03/19 06:11:22;;;;;;;20.60;8.50;;;2.60;99.90;;;;;;6268274;22;20031;-56
2022/03/19 06:13:47;;;;;;;15.63;6.65;;;2.60;99.90;;;;;;6268371;22;20023;-56
2022/03/19 06:16:13;;;;;;;16.35;7.00;;;2.70;99.90;;;;;;6268119;22;20338;-56
2022/03/19 06:18:39;;;;;;;20.35;7.78;;;2.70;99.90;;;;;;6266608;22;20409;-56
2022/03/19 06:21:05;;;;;;;19.50;8.32;;;2.70;99.90;;;;;;6267121;22;20016;-57
2022/03/19 06:23:31;;;;;;;18.40;8.48;;;2.80;99.90;;;;;;6267395;22;20412;-56
2022/03/19 06:25:57;;;;;;;20.95;8.57;;;2.90;99.90;;;;;;6268376;22;20468;-56
2022/03/19 06:28:23;;;;;;;14.82;6.80;;;2.90;99.90;;;;;;6267908;22;20093;-56
2022/03/19 06:30:49;;;;;;;14.85;7.60;;;3.50;99.90;;;;;;6267790;22;20450;-56
2022/03/19 06:33:15;;;;;;;17.95;7.15;;;3.10;99.90;;;;;;6268204;22;20027;-56
2022/03/19 06:38:30;;;;;;;18.15;6.93;;;3.30;99.90;;;;;;6267036;22;20116;-56
2022/03/19 06:40:57;;;;;;;18.05;7.72;;;3.40;99.90;;;;;;6268024;22;20024;-57
2022/03/19 06:43:24;;;;;;;21.90;7.20;;;3.50;99.90;;;;;;6267259;22;20124;-56
2022/03/19 06:45:50;;;;;;;16.98;6.85;;;3.60;99.90;;;;;;6268121;22;20085;-56
2022/03/19 06:48:16;;;;;;;12.48;6.20;;;3.70;99.90;;;;;;6266796;22;20200;-56
2022/03/19 06:50:42;;;;;;;12.38;5.65;;;3.90;99.90;;;;;;6267343;22;20062;-56
2022/03/19 06:53:08;;;;;;;27.35;7.80;;;4.00;99.90;;;;;;6266625;22;20031;-56
2022/03/19 06:55:34;;;;;;;15.82;6.47;;;4.10;99.90;;;;;;6267795;22;20023;-56
2022/03/19 06:58:00;;;;;;;16.95;6.22;;;4.30;99.90;;;;;;6267356;22;20230;-56
2022/03/19 07:00:26;;;;;;;15.02;7.70;;;4.50;99.90;;;;;;6267097;22;20057;-56
2022/03/19 07:02:54;;;;;;;29.90;8.30;;;4.70;99.90;;;;;;6267340;22;20439;-56
2022/03/19 07:05:21;;;;;;;22.25;6.75;;;4.80;99.90;;;;;;6267429;22;20474;-56
2022/03/19 07:07:48;;;;;;;11.40;5.80;;;5.00;99.90;;;;;;6267649;22;20469;-56
2022/03/19 07:10:15;;;;;;;13.65;6.15;;;5.20;99.90;;;;;;6266680;22;20019;-56
2022/03/19 07:12:47;;;;;;;11.75;6.22;;;5.40;99.90;;;;;;6266010;22;20474;-56
2022/03/19 07:15:14;;;;;;;12.77;6.18;;;5.60;99.90;;;;;;6264732;22;20342;-56
2022/03/19 07:17:41;;;;;;;16.42;7.38;;;5.90;99.90;;;;;;6264735;22;20094;-57
2022/03/19 07:20:07;;;;;;;18.83;7.25;;;6.00;99.90;;;;;;6265536;22;20077;-57
2022/03/19 07:22:51;;;;;;;14.05;6.78;;;6.30;99.90;;;;;;6266134;22;20027;-56
2022/03/19 07:25:19;;;;;;;15.27;6.05;;;6.50;99.90;;;;;;6238996;22;20023;-56
2022/03/19 07:27:46;;;;;;;12.90;6.47;;;6.80;99.90;;;;;;6267306;22;20024;-56
2022/03/19 07:30:12;;;;;;;18.45;7.25;;;7.10;99.90;;;;;;6238924;22;20385;-56
2022/03/19 07:32:38;;;;;;;17.58;5.88;;;7.30;99.90;;;;;;6267094;22;20019;-56
2022/03/19 07:35:06;;;;;;;13.93;6.32;;;7.60;99.90;;;;;;6267313;22;20466;-56
2022/03/19 07:37:32;;;;;;;15.90;5.72;;;7.80;99.90;;;;;;6266282;22;20325;-57
2022/03/19 07:39:59;;;;;;;14.70;6.93;;;8.10;99.90;;;;;;6266388;22;20026;-57
2022/03/19 07:42:25;;;;;;;17.88;5.50;;;8.50;99.90;;;;;;6264334;22;20020;-56
2022/03/19 07:44:51;;;;;;;16.13;5.75;;;8.60;99.90;;;;;;6266831;22;20387;-56
2022/03/19 07:47:18;;;;;;;14.05;6.82;;;8.80;99.90;;;;;;6266677;22;20055;-57
2022/03/19 07:49:44;;;;;;;16.20;6.07;;;9.10;99.90;;;;;;6238486;22;20019;-56
2022/03/19 07:52:10;;;;;;;12.18;5.28;;;9.30;99.90;;;;;;6265417;22;20429;-56
2022/03/19 07:54:36;;;;;;;11.25;4.82;;;9.50;99.90;;;;;;6265391;22;20100;-56
2022/03/19 07:57:03;;;;;;;12.40;4.50;;;9.60;99.90;;;;;;6265558;22;20016;-56
2022/03/19 07:59:29;;;;;;;11.00;4.43;;;9.90;99.90;;;;;;6265457;22;20596;-56
2022/03/19 08:01:55;;;;;;;11.48;5.00;;;10.40;99.90;;;;;;6265396;22;20055;-56
2022/03/19 08:04:22;;;;;;;12.57;4.72;;;10.20;99.90;;;;;;6264983;22;20020;-56
2022/03/19 08:06:49;;;;;;;17.25;5.65;;;10.50;99.90;;;;;;6267090;22;20027;-56
2022/03/19 08:09:15;;;;;;;11.15;4.07;;;10.70;99.90;;;;;;6238813;22;20470;-56
2022/03/19 08:11:41;;;;;;;13.23;4.50;;;10.90;99.90;;;;;;6265961;22;20016;-56
2022/03/19 08:14:07;;;;;;;11.68;5.15;;;11.10;99.90;;;;;;6265189;22;20030;-56
2022/03/19 08:16:33;;;;;;;10.10;4.07;;;11.30;99.90;;;;;;6266009;22;20090;-56
2022/03/19 08:19:00;;;;;;;9.57;4.55;;;11.60;99.90;;;;;;6266105;22;20050;-56
2022/03/19 08:21:26;;;;;;;11.25;4.15;;;11.90;99.90;;;;;;6266175;22;20015;-57
2022/03/19 08:23:52;;;;;;;10.80;3.53;;;12.10;99.90;;;;;;6265242;22;20081;-56
2022/03/19 08:26:18;;;;;;;8.98;3.50;;;12.10;99.90;;;;;;6232546;22;20489;-57
2022/03/19 08:28:44;;;;;;;10.35;3.25;;;12.40;99.90;;;;;;6261597;22;20023;-56
2022/03/19 08:31:10;;;;;;;10.02;3.65;;;12.60;99.90;;;;;;6261488;22;20080;-56
2022/03/19 08:33:35;;;;;;;17.17;4.13;;;12.70;99.90;;;;;;6261344;22;20092;-57
2022/03/19 08:36:01;;;;;;;9.93;3.40;;;12.90;99.90;;;;;;6261046;22;20027;-57
2022/03/19 08:41:11;;;;;;;;;;;13.20;99.90;;;;;;6262783;22;20024;-58
2022/03/19 08:43:37;;;;;;;10.38;2.45;;;13.50;99.90;;;;;;6263342;22;19946;-59
2022/03/19 08:46:04;;;;;;;10.73;3.67;;;13.60;99.90;;;;;;6263881;22;20090;-57
2022/03/19 08:48:30;;;;;;;7.90;3.20;;;13.90;99.90;;;;;;6262556;22;20019;-57
2022/03/19 08:51:39;;;;;;;13.13;3.80;;;14.10;99.90;;;;;;6263743;22;20027;-57
2022/03/19 08:53:41;;;;;;;7.95;2.17;;;14.30;99.90;;;;;;6262360;22;20051;-57
2022/03/19 08:56:07;;;;;;;7.47;3.92;;;14.40;99.90;;;;;;6262157;22;20059;-58
2022/03/19 08:58:33;;;;;;;10.45;2.65;;;14.70;99.90;;;;;;6262798;22;20030;-57
2022/03/19 09:00:59;;;;;;;11.68;3.60;;;15.00;99.90;;;;;;6263302;22;20043;-57
2022/03/19 09:03:26;;;;;;;13.38;3.38;;;15.30;99.90;;;;;;6263642;22;20501;-60
2022/03/19 09:05:52;;;;;;;7.43;2.50;;;15.60;99.90;;;;;;6232922;22;20105;-63
2022/03/19 09:08:18;;;;;;;5.60;2.55;;;15.70;99.90;;;;;;6261164;22;20039;-57
2022/03/19 09:10:43;;;;;;;9.40;2.40;;;15.80;99.90;;;;;;6261491;22;20016;-56
2022/03/19 09:13:09;;;;;;;6.90;2.63;;;15.90;99.90;;;;;;6260788;22;20142;-57
2022/03/19 09:15:35;;;;;;;9.05;3.50;;;16.10;99.90;;;;;;6232310;22;20023;-59
2022/03/19 09:18:00;;;;;;;11.52;2.45;;;16.20;99.90;;;;;;6263737;22;20047;-59
2022/03/19 09:20:26;;;;;;;9.07;2.97;;;16.40;99.90;;;;;;6261757;22;20027;-58
2022/03/19 09:22:52;;;;;;;7.35;2.85;;;16.50;99.90;;;;;;6261031;22;20023;-57
2022/03/19 09:25:18;;;;;;;9.45;3.05;;;16.70;99.90;;;;;;6261304;22;20016;-65
2022/03/19 09:27:44;;;;;;;12.02;2.95;;;16.80;99.90;;;;;;6261258;22;20201;-58
2022/03/19 09:30:10;;;;;;;7.07;2.70;;;17.00;99.90;;;;;;6261989;22;20123;-60
2022/03/19 09:32:36;;;;;;;9.15;2.40;;;17.00;99.90;;;;;;6258503;22;20415;-60
2022/03/19 09:35:03;;;;;;;8.07;2.58;;;17.20;99.90;;;;;;6259375;22;20026;-58
2022/03/19 09:37:29;;;;;;;9.80;2.30;;;17.30;99.80;;;;;;6233266;22;20062;-57
2022/03/19 09:39:54;;;;;;;7.45;2.55;;;17.30;99.70;;;;;;6233983;22;20047;-57
2022/03/19 09:42:21;;;;;;;10.25;2.83;;;17.40;97.50;;;;;;6263851;22;20020;-57
2022/03/19 09:44:47;;;;;;;10.77;2.45;;;17.70;99.20;;;;;;6263371;22;20026;-57
2022/03/19 09:47:13;;;;;;;10.95;3.05;;;17.90;96.80;;;;;;6261526;22;20050;-56
2022/03/19 09:49:39;;;;;;;7.07;2.50;;;17.80;98.50;;;;;;6262464;22;20111;-56
2022/03/19 09:52:05;;;;;;;8.00;2.00;;;18.10;98.10;;;;;;6260843;22;20103;-57
2022/03/19 09:54:32;;;;;;;5.50;2.10;;;18.10;98.00;;;;;;6262377;22;20321;-56
2022/03/19 09:56:58;;;;;;;5.90;2.45;;;18.20;97.40;;;;;;6262230;22;20106;-58
2022/03/19 09:59:24;;;;;;;15.32;2.83;;;18.40;97.30;;;;;;6261806;22;20100;-56
2022/03/19 10:01:51;;;;;;;5.65;2.10;;;18.60;96.30;;;;;;6234645;22;20015;-56
2022/03/19 10:04:19;;;;;;;10.60;3.15;;;18.70;96.40;;;;;;6263375;22;20453;-56
2022/03/19 10:09:46;;;;;;;7.78;2.65;;;18.40;95.70;;;;;;6262711;22;20425;-57
2022/03/19 10:12:27;;;;;;;5.55;2.60;;;18.80;94.90;;;;;;6261959;22;20019;-56
2022/03/19 10:14:54;;;;;;;5.43;1.92;;;19.10;94.10;;;;;;6260591;22;20023;-57
2022/03/19 10:17:28;;;;;;;6.03;3.00;;;19.30;95.10;;;;;;6262542;22;20015;-56
2022/03/19 10:19:58;;;;;;;11.85;3.05;;;19.20;93.90;;;;;;6261610;22;20146;-57
2022/03/19 10:22:25;;;;;;;6.43;2.03;;;19.00;92.60;;;;;;6262925;22;20030;-57
2022/03/19 10:25:06;;;;;;;6.95;1.63;;;18.90;94.50;;;;;;6263062;22;20051;-56
2022/03/19 10:27:34;;;;;;;9.75;1.90;;;19.00;92.50;;;;;;6236754;22;20082;-56
2022/03/19 10:30:09;;;;;;;6.28;1.85;;;19.10;93.40;;;;;;6263113;22;20031;-57
2022/03/19 10:32:36;;;;;;;8.82;1.98;;;19.10;91.60;;;;;;6264339;22;20085;-56
2022/03/19 10:35:03;;;;;;;4.72;1.45;;;18.90;92.80;;;;;;6263397;22;20020;-56
2022/03/19 10:37:38;;;;;;;8.25;2.08;;;19.00;93.70;;;;;;6263986;22;20050;-57
2022/03/19 10:40:07;;;;;;;4.78;1.83;;;19.20;92.60;;;;;;6263408;22;20015;-56
2022/03/19 10:42:40;;;;;;;5.80;2.65;;;19.40;91.70;;;;;;6263212;22;20027;-57
2022/03/19 10:45:11;;;;;;;7.68;2.72;;;19.40;92.40;;;;;;6262775;22;20381;-57
2022/03/19 10:47:47;;;;;;;4.18;1.63;;;19.50;92.70;;;;;;6264240;22;20055;-57
2022/03/19 10:50:21;;;;;;;9.05;1.80;;;19.60;92.30;;;;;;6262287;22;20023;-57
2022/03/19 10:52:49;;;;;;;6.63;2.00;;;19.80;92.40;;;;;;6264446;22;20042;-57
2022/03/19 10:55:15;;;;;;;8.80;2.45;;;19.60;91.70;;;;;;6262869;22;20020;-57
2022/03/19 10:57:41;;;;;;;7.25;2.13;;;19.30;92.10;;;;;;6263809;22;20026;-57
2022/03/19 11:00:08;;;;;;;5.75;1.42;;;19.20;92.20;;;;;;6262585;22;20158;-56
2022/03/19 11:02:38;;;;;;;7.50;2.17;;;19.40;92.20;;;;;;6263210;22;20058;-56
2022/03/19 11:05:05;;;;;;;3.75;1.73;;;19.50;92.20;;;;;;6263028;22;20019;-57
2022/03/19 11:07:33;;;;;;;4.47;2.22;;;19.50;92.10;;;;;;6263666;22;20043;-57
2022/03/19 11:10:01;;;;;;;4.68;2.58;;;19.60;92.10;;;;;;6263360;22;20078;-57
2022/03/19 11:12:31;;;;;;;4.97;1.88;;;19.30;92.10;;;;;;6263352;22;20487;-56
2022/03/19 11:14:58;;;;;;;4.43;1.45;;;19.40;92.20;;;;;;6264153;22;20016;-57
2022/03/19 11:17:30;;;;;;;8.25;2.05;;;19.40;92.30;;;;;;6262423;22;20450;-56
2022/03/19 11:20:06;;;;;;;6.38;2.22;;;19.20;92.30;;;;;;6264245;22;20134;-57
2022/03/19 11:22:42;;;;;;;7.30;1.42;;;19.70;91.50;;;;;;6262555;22;20346;-57
2022/03/19 11:25:30;;;;;;;7.28;1.85;;;19.70;91.50;;;;;;6235811;22;20023;-57
2022/03/19 11:28:15;;;;;;;3.88;1.42;;;19.80;90.90;;;;;;6263525;22;20030;-57
2022/03/19 11:30:57;;;;;;;8.70;1.98;;;19.70;92.00;;;;;;6261789;22;20050;-59
2022/03/19 11:33:23;;;;;;;3.45;1.15;;;19.80;91.90;;;;;;6263696;22;20023;-67
2022/03/19 11:35:56;;;;;;;5.95;1.70;;;20.00;91.70;;;;;;6262542;22;20027;-63
2022/03/19 11:38:23;;;;;;;2.90;1.50;;;20.20;90.80;;;;;;6262149;22;20023;-60
2022/03/19 11:40:54;;;;;;;6.55;2.25;;;20.20;91.60;;;;;;6261003;22;20016;-65
2022/03/19 11:43:32;;;;;;;3.72;1.73;;;20.50;91.30;;;;;;6262056;22;20029;-59
2022/03/19 11:46:11;;;;;;;4.47;1.85;;;20.20;90.20;;;;;;6262581;22;20024;-58
2022/03/19 11:48:36;;;;;;;4.97;1.40;;;20.30;88.60;;;;;;6235095;22;20024;-62
2022/03/19 11:51:22;;;;;;;2.72;0.90;;;20.50;90.60;;;;;;6261796;22;20078;-57
2022/03/19 11:53:58;;;;;;;7.60;1.25;;;20.60;87.70;;;;;;6262705;22;20032;-58
2022/03/19 11:56:41;;;;;;;4.55;1.45;;;20.40;90.40;;;;;;6258445;22;20703;-59
2022/03/19 11:59:15;;;;;;;8.48;1.70;;;20.40;90.30;;;;;;6261798;22;20023;-65
2022/03/19 12:01:44;;;;;;;1.98;0.95;;;20.90;88.80;;;;;;6262649;22;20019;-57
2022/03/19 12:04:10;;;;;;;3.45;1.60;;;21.20;89.50;;;;;;6235881;22;20023;-57
2022/03/19 12:06:38;;;;;;;3.97;1.85;;;21.40;90.30;;;;;;6260951;22;20070;-58
2022/03/19 12:09:04;;;;;;;5.28;1.75;;;21.00;90.30;;;;;;6261893;22;20020;-57
2022/03/19 12:11:32;;;;;;;4.10;1.30;;;21.60;87.90;;;;;;6261792;22;20038;-57
2022/03/19 12:13:58;;;;;;;3.72;1.33;;;21.70;90.00;;;;;;6263520;22;20019;-57
2022/03/19 12:16:41;;;;;;;3.03;1.60;;;22.60;89.10;;;;;;6264083;22;20073;-57
2022/03/19 12:19:08;;;;;;;4.22;1.42;;;23.40;82.40;;;;;;6262237;22;20651;-57
2022/03/19 12:21:43;;;;;;;4.85;1.25;;;24.40;86.30;;;;;;6263921;22;20051;-57
2022/03/19 12:24:42;;;;;;;3.75;1.73;;;27.00;83.20;;;;;;6262769;22;20441;-58
2022/03/19 12:27:08;;;;;;;2.92;1.60;;;29.70;77.80;;;;;;6263688;22;20023;-58
2022/03/19 12:29:35;;;;;;;5.05;1.83;;;30.20;76.00;;;;;;6262912;22;20077;-57
2022/03/19 12:32:04;;;;;;;3.00;1.60;;;30.30;71.30;;;;;;6264019;22;20027;-57
2022/03/19 12:34:30;;;;;;;3.38;1.30;;;32.10;72.00;;;;;;6262637;22;20020;-57
2022/03/19 12:37:02;;;;;;;3.85;1.67;;;32.40;69.50;;;;;;6262663;22;20046;-58
2022/03/19 12:39:28;;;;;;;3.97;1.92;;;32.20;64.50;;;;;;6264044;22;20027;-61
2022/03/19 12:41:54;;;;;;;4.50;1.52;;;31.40;66.80;;;;;;6265208;22;20022;-58
2022/03/19 12:44:28;;;;;;;2.80;1.25;;;32.40;66.00;;;;;;6263651;22;20336;-59
2022/03/19 12:47:03;;;;;;;3.00;2.10;;;33.40;64.00;;;;;;6260283;22;20020;-58
2022/03/19 12:49:31;;;;;;;3.92;1.58;;;33.70;61.80;;;;;;6263128;22;20384;-58
2022/03/19 12:51:57;;;;;;;7.47;2.40;;;33.20;61.10;;;;;;6263910;22;20376;-57
2022/03/19 12:54:31;;;;;;;6.38;1.80;;;33.60;60.90;;;;;;6263145;22;20023;-58
2022/03/19 12:57:11;;;;;;;5.30;1.63;;;32.80;59.50;;;;;;6264290;22;20050;-57
2022/03/19 12:59:45;;;;;;;3.42;1.33;;;32.90;57.70;;;;;;6263710;22;20058;-58
2022/03/19 13:02:11;;;;;;;5.82;1.83;;;33.50;58.80;;;;;;6264905;22;20476;-58
2022/03/19 13:04:39;;;;;;;2.45;1.20;;;33.20;57.90;;;;;;6265904;22;20024;-57
2022/03/19 13:07:06;;;;;;;2.90;0.85;;;32.90;57.50;;;;;;6264669;22;20822;-61